Time;durP1;ratioP1;P1;durP2;ratioP2;P2;SDS_P1;SDS_P2;PMS_P1;PMS_P2;Temp;Humidity;BMP_temperature;BMP_pressure;BME280_temperature;BME280_humidity;BME280_pressure;Samples;Min_cycle;Max_cycle;Signal;HPM_P1;HPM_P2
2022/07/30 00:00:20;;;;;;;4.75;3.60;;;;;;;19.37;56.53;100162.31;5131737;28;20092;-61
2022/07/30 00:03:04;;;;;;;10.20;3.55;;;;;;;19.37;56.61;100162.31;5131285;28;20054;-61
2022/07/30 00:05:50;;;;;;;18.65;4.50;;;;;;;19.37;56.55;100156.19;5131691;28;20054;-60
2022/07/30 00:08:34;;;;;;;8.48;4.10;;;;;;;19.35;56.40;100158.84;5116042;28;20038;-61
2022/07/30 00:11:20;;;;;;;6.53;4.18;;;;;;;19.32;56.65;100149.25;5131527;28;20426;-61
2022/07/30 00:14:04;;;;;;;6.65;3.72;;;;;;;19.31;56.78;100150.13;5131171;28;20054;-60
2022/07/30 00:16:48;;;;;;;6.13;3.30;;;;;;;19.32;56.64;100159.75;5131382;28;20134;-60
2022/07/30 00:19:35;;;;;;;6.68;4.30;;;;;;;19.30;56.60;100156.31;5131381;28;20235;-61
2022/07/30 00:22:19;;;;;;;7.85;3.90;;;;;;;19.28;56.92;100154.59;5115876;28;20080;-61
2022/07/30 00:25:03;;;;;;;9.75;4.18;;;;;;;19.27;56.68;100160.72;5115602;28;20051;-60
2022/07/30 00:27:47;;;;;;;4.85;3.58;;;;;;;19.25;56.71;100154.63;5131116;28;20051;-61
2022/07/30 00:30:31;;;;;;;6.10;3.83;;;;;;;19.23;56.75;100159.94;5130606;28;20517;-61
2022/07/30 00:33:15;;;;;;;10.38;5.03;;;;;;;19.22;56.71;100152.09;5115448;28;20173;-61
2022/07/30 00:36:02;;;;;;;8.52;4.13;;;;;;;19.20;57.06;100156.50;5131054;28;20585;-61
2022/07/30 00:38:46;;;;;;;6.43;4.05;;;;;;;19.17;56.74;100155.66;5130833;28;20054;-60
2022/07/30 00:41:30;;;;;;;6.70;4.13;;;;;;;19.19;56.97;100162.66;5115414;28;20547;-61
2022/07/30 00:44:17;;;;;;;8.25;4.18;;;;;;;19.16;57.05;100164.44;5115463;28;20158;-62
2022/07/30 00:47:02;;;;;;;6.75;3.67;;;;;;;19.16;56.83;100155.66;5116244;28;20194;-63
2022/07/30 00:49:46;;;;;;;9.13;4.20;;;;;;;19.14;56.98;100163.59;5116993;28;20046;-62
2022/07/30 00:52:38;;;;;;;6.88;4.80;;;;;;;19.14;57.09;100160.97;5101603;28;20093;-61
2022/07/30 00:55:24;;;;;;;5.25;3.30;;;;;;;19.15;57.04;100162.69;5101673;28;20043;-61
2022/07/30 00:58:08;;;;;;;7.07;4.10;;;;;;;19.13;57.10;100161.84;5101613;28;20042;-61
2022/07/30 01:00:53;;;;;;;5.57;4.13;;;;;;;19.13;57.32;100169.72;5116633;28;20046;-60
2022/07/30 01:03:39;;;;;;;6.60;4.53;;;;;;;19.11;57.14;100161.00;5101512;28;20054;-61
2022/07/30 01:06:24;;;;;;;9.65;3.88;;;;;;;19.10;57.17;100155.78;5116651;28;20440;-61
2022/07/30 01:09:08;;;;;;;7.32;4.22;;;;;;;19.06;57.38;100157.63;5116824;28;20062;-61
2022/07/30 01:11:55;;;;;;;6.22;4.20;;;;;;;19.05;57.30;100150.63;5116686;28;20517;-60
2022/07/30 01:14:39;;;;;;;5.25;3.83;;;;;;;19.02;57.45;100164.66;5101210;28;20050;-63
2022/07/30 01:17:29;;;;;;;5.45;4.18;;;;;;;18.96;57.45;100156.91;5116524;28;20059;-62
2022/07/30 01:20:22;;;;;;;5.70;4.10;;;;;;;18.94;57.41;100156.06;5116250;28;20047;-61
2022/07/30 01:23:17;;;;;;;5.95;4.20;;;;;;;18.93;57.61;100161.28;5101088;28;20047;-62
2022/07/30 01:26:06;;;;;;;;;;;;;;;18.89;57.42;100160.47;5101413;28;20418;-62
2022/07/30 01:28:54;;;;;;;8.30;4.07;;;;;;;18.87;57.55;100157.00;5100762;28;19919;-62
2022/07/30 01:31:39;;;;;;;7.03;4.53;;;;;;;18.86;57.59;100164.03;5115845;28;20509;-62
2022/07/30 01:34:23;;;;;;;8.27;4.13;;;;;;;18.84;57.66;100157.94;5115614;28;20063;-62
2022/07/30 01:37:12;;;;;;;7.80;3.90;;;;;;;18.80;57.94;100156.25;5100532;28;20443;-62
2022/07/30 01:39:57;;;;;;;6.40;3.83;;;;;;;18.80;57.79;100148.38;5100885;28;20509;-61
2022/07/30 01:42:43;;;;;;;5.55;4.25;;;;;;;18.78;57.80;100154.53;5100873;28;20567;-61
2022/07/30 01:45:29;;;;;;;6.68;3.90;;;;;;;18.76;57.73;100149.31;5100692;28;20566;-61
2022/07/30 01:48:16;;;;;;;11.30;4.78;;;;;;;18.74;58.02;100155.47;5100646;28;20163;-60
2022/07/30 01:51:03;;;;;;;12.85;4.47;;;;;;;18.72;57.75;100152.88;5116006;28;20108;-61
2022/07/30 01:53:49;;;;;;;6.10;4.05;;;;;;;18.70;57.96;100160.75;5100791;28;20526;-61
2022/07/30 01:56:36;;;;;;;8.73;5.03;;;;;;;18.69;57.88;100158.19;5099739;28;20457;-61
2022/07/30 01:59:21;;;;;;;7.68;4.65;;;;;;;18.68;58.03;100161.69;5100319;28;20039;-61
2022/07/30 02:02:06;;;;;;;9.02;4.20;;;;;;;18.66;58.24;100153.84;5100513;28;20054;-61
2022/07/30 02:04:53;;;;;;;6.20;5.10;;;;;;;18.66;58.01;100163.47;5100208;28;20441;-60
2022/07/30 02:07:51;;;;;;;11.95;4.82;;;;;;;18.65;58.24;100162.63;5100227;28;20050;-63
2022/07/30 02:10:47;;;;;;;7.25;4.90;;;;;;;18.64;58.39;100162.63;5115621;28;20046;-60
2022/07/30 02:13:44;;;;;;;7.72;5.45;;;;;;;18.63;58.45;100159.16;5100028;28;20078;-61
2022/07/30 02:16:35;;;;;;;14.55;6.50;;;;;;;18.62;58.33;100167.03;5100005;28;20098;-61
2022/07/30 02:19:21;;;;;;;10.93;5.82;;;;;;;18.61;58.34;100160.06;5100229;28;20124;-63
2022/07/30 02:22:08;;;;;;;8.73;5.60;;;;;;;18.61;58.71;100160.06;5099848;28;20050;-61
2022/07/30 02:24:54;;;;;;;11.27;5.72;;;;;;;18.61;58.68;100163.53;5099845;28;20152;-61
2022/07/30 02:27:42;;;;;;;8.98;5.20;;;;;;;18.61;58.61;100162.69;5114824;28;20074;-61
2022/07/30 02:30:31;;;;;;;10.63;6.03;;;;;;;18.59;58.92;100161.84;5099813;28;20447;-61
2022/07/30 02:33:21;;;;;;;11.55;5.60;;;;;;;18.59;58.76;100156.59;5099431;28;20461;-61
2022/07/30 02:37:24;;;;;;;8.68;5.68;;;;;;;18.56;58.85;100155.75;5111469;27;20594;-61
2022/07/30 02:40:16;;;;;;;12.27;6.30;;;;;;;18.54;58.83;100162.78;5110743;28;20059;-61
2022/07/30 02:43:01;;;;;;;6.78;5.60;;;;;;;18.54;58.96;100167.13;5110465;28;20046;-60
2022/07/30 02:45:47;;;;;;;8.40;5.88;;;;;;;18.50;58.95;100163.69;5111527;28;20092;-61
2022/07/30 02:48:32;;;;;;;11.55;6.13;;;;;;;18.46;59.06;100169.03;5110531;28;20061;-61
2022/07/30 02:51:21;;;;;;;8.57;6.18;;;;;;;18.46;58.86;100164.63;5110476;28;20090;-61
2022/07/30 02:54:07;;;;;;;12.43;6.88;;;;;;;18.45;59.03;100167.28;5110412;28;20046;-62
2022/07/30 02:56:52;;;;;;;15.20;6.57;;;;;;;18.43;58.95;100167.31;5110060;28;20456;-60
2022/07/30 02:59:39;;;;;;;9.65;5.97;;;;;;;18.41;59.25;100166.47;5110219;28;20053;-61
2022/07/30 03:02:31;;;;;;;13.15;6.68;;;;;;;18.39;59.10;100165.63;5110242;28;20131;-61
2022/07/30 03:07:24;;;;;;;11.77;7.28;;;;;;;18.38;59.34;100169.13;5173676;27;20596;-61
2022/07/30 03:10:13;;;;;;;11.98;8.00;;;;;;;18.37;59.26;100173.50;5136962;27;20050;-62
2022/07/30 03:13:01;;;;;;;13.60;7.28;;;;;;;18.35;59.39;100174.41;5152525;27;20417;-60
2022/07/30 03:15:48;;;;;;;11.88;7.30;;;;;;;18.35;59.42;100174.41;5137185;27;20099;-61
2022/07/30 03:18:37;;;;;;;13.18;8.00;;;;;;;18.35;59.16;100174.41;5136957;27;20505;-60
2022/07/30 03:21:27;;;;;;;17.67;8.30;;;;;;;18.35;59.39;100177.03;5136952;27;20485;-61
2022/07/30 03:24:13;;;;;;;12.07;8.05;;;;;;;18.33;59.34;100181.44;5137038;27;20049;-61
2022/07/30 03:26:59;;;;;;;11.65;7.75;;;;;;;18.31;59.55;100183.22;5136768;27;20443;-60
2022/07/30 03:29:48;;;;;;;15.02;7.53;;;;;;;18.31;59.62;100185.84;5152249;27;20518;-61
2022/07/30 03:32:34;;;;;;;13.90;8.10;;;;;;;18.31;59.68;100183.22;5136431;27;20528;-61
2022/07/30 03:35:20;;;;;;;10.80;7.97;;;;;;;18.29;59.42;100182.41;5152356;27;20536;-61
2022/07/30 03:38:05;;;;;;;12.70;8.40;;;;;;;18.28;59.58;100192.00;5136610;27;20049;-61
2022/07/30 03:40:53;;;;;;;14.32;8.85;;;;;;;18.26;59.69;100196.41;5152092;27;20417;-61
2022/07/30 03:43:55;;;;;;;12.75;8.50;;;;;;;18.25;59.80;100192.91;5152813;27;20371;-61
2022/07/30 03:46:42;;;;;;;12.38;8.32;;;;;;;18.24;59.81;100191.19;5166441;27;20512;-62
2022/07/30 03:49:27;;;;;;;13.95;7.97;;;;;;;18.25;59.97;100189.41;5137174;27;20050;-61
2022/07/30 03:52:14;;;;;;;13.15;8.77;;;;;;;18.22;59.89;100192.97;5137129;27;20081;-60
2022/07/30 03:55:01;;;;;;;13.90;8.85;;;;;;;18.22;59.93;100195.56;5152647;27;20395;-62
2022/07/30 03:57:45;;;;;;;11.88;8.90;;;;;;;18.21;60.09;100195.63;5137109;27;20089;-61
2022/07/30 04:00:32;;;;;;;20.42;9.90;;;;;;;18.21;59.91;100190.38;5152434;27;20158;-62
2022/07/30 04:03:31;;;;;;;12.98;8.98;;;;;;;18.21;60.05;100193.00;5152260;27;20508;-62
2022/07/30 04:06:17;;;;;;;13.00;9.45;;;;;;;18.20;60.17;100194.72;5136561;27;20390;-61
2022/07/30 04:09:04;;;;;;;14.90;8.82;;;;;;;18.22;60.34;100195.56;5136578;27;20053;-62
2022/07/30 04:11:48;;;;;;;16.63;9.55;;;;;;;18.24;60.25;100201.69;5152412;27;20085;-62
2022/07/30 04:14:41;;;;;;;15.93;10.25;;;;;;;18.25;60.54;100206.03;5136473;27;20081;-62
2022/07/30 04:17:48;;;;;;;13.98;9.20;;;;;;;18.25;60.66;100200.78;5136363;27;20416;-62
2022/07/30 04:20:42;;;;;;;13.55;9.23;;;;;;;18.25;60.43;100207.78;5136411;27;20091;-61
2022/07/30 04:23:27;;;;;;;14.35;9.48;;;;;;;18.28;60.51;100214.75;5136231;27;20408;-61
2022/07/30 04:26:15;;;;;;;14.63;9.98;;;;;;;18.26;60.81;100210.41;5151804;27;20050;-61
2022/07/30 04:29:06;;;;;;;15.38;10.68;;;;;;;18.29;60.90;100214.72;5151655;27;20046;-62
2022/07/30 04:31:52;;;;;;;18.40;10.85;;;;;;;18.30;60.98;100210.34;5136481;27;20076;-62
2022/07/30 04:34:45;;;;;;;22.33;11.50;;;;;;;18.29;60.84;100219.13;5136008;27;20042;-61
2022/07/30 04:37:30;;;;;;;22.00;13.32;;;;;;;18.30;61.34;100216.47;5136089;27;20397;-62
2022/07/30 04:40:17;;;;;;;18.48;12.13;;;;;;;18.32;61.17;100217.31;5136327;27;20504;-62
2022/07/30 04:43:03;;;;;;;19.15;12.25;;;;;;;18.34;61.39;100220.78;5135399;27;20508;-62
2022/07/30 04:45:53;;;;;;;20.13;13.25;;;;;;;18.34;61.58;100219.91;5136150;27;20171;-61
2022/07/30 04:48:40;;;;;;;24.27;14.35;;;;;;;18.35;61.33;100226.88;5136115;27;20049;-62
2022/07/30 04:51:28;;;;;;;20.02;13.57;;;;;;;18.36;61.66;100228.63;5151622;27;20130;-60
2022/07/30 04:54:14;;;;;;;27.27;14.40;;;;;;;18.36;61.76;100236.50;5128091;27;20449;-61
2022/07/30 04:56:59;;;;;;;23.73;15.15;;;;;;;18.37;61.68;100238.22;5137409;27;20077;-60
2022/07/30 04:59:44;;;;;;;23.83;14.95;;;;;;;18.37;61.84;100236.47;5137404;27;20099;-61
2022/07/30 05:02:32;;;;;;;20.65;14.45;;;;;;;18.38;61.78;100240.81;5121590;27;20058;-61
2022/07/30 05:05:18;;;;;;;21.88;14.25;;;;;;;18.38;62.02;100243.44;5122362;27;20062;-60
2022/07/30 05:08:03;;;;;;;21.20;14.10;;;;;;;18.40;61.75;100248.69;5121907;27;20069;-61
2022/07/30 05:10:50;;;;;;;24.10;13.95;;;;;;;18.40;62.21;100246.06;5137293;27;20058;-60
2022/07/30 05:13:33;;;;;;;24.42;14.35;;;;;;;18.39;62.07;100254.81;5121979;27;20054;-60
2022/07/30 05:16:23;;;;;;;23.00;14.18;;;;;;;18.39;62.32;100258.31;5137303;27;20053;-62
2022/07/30 05:19:10;;;;;;;28.73;14.68;;;;;;;18.39;61.99;100260.94;5121801;27;20050;-62
2022/07/30 05:21:54;;;;;;;31.02;14.73;;;;;;;18.40;62.09;100272.31;5137056;27;20405;-62
2022/07/30 05:24:44;;;;;;;20.65;14.40;;;;;;;18.41;62.26;100276.66;5137179;27;20509;-62
2022/07/30 05:27:31;;;;;;;18.65;13.23;;;;;;;18.41;62.35;100274.03;5121797;27;20146;-62
2022/07/30 05:30:15;;;;;;;24.15;14.70;;;;;;;18.39;62.45;100271.44;5121669;27;20073;-62
2022/07/30 05:32:58;;;;;;;26.92;16.50;;;;;;;18.40;62.31;100273.16;5121189;27;20170;-62
2022/07/30 05:35:45;;;;;;;27.35;16.17;;;;;;;18.43;62.28;100261.78;5137034;27;20046;-62
2022/07/30 05:38:33;;;;;;;31.60;16.77;;;;;;;18.41;62.64;100255.69;5121424;27;20054;-60
2022/07/30 05:41:17;;;;;;;22.83;14.73;;;;;;;18.40;62.71;100253.94;5121269;27;20050;-61
2022/07/30 05:44:01;;;;;;;22.88;15.15;;;;;;;18.41;62.83;100259.16;5095663;28;20047;-61
2022/07/30 05:46:45;;;;;;;25.90;15.82;;;;;;;18.42;62.74;100252.16;5094841;28;20055;-61
2022/07/30 05:49:29;;;;;;;23.88;16.33;;;;;;;18.43;62.87;100259.16;5095664;28;20109;-61
2022/07/30 05:52:13;;;;;;;27.70;16.10;;;;;;;18.44;62.81;100263.53;5095728;28;20051;-61
2022/07/30 05:55:03;;;;;;;21.70;15.20;;;;;;;18.45;62.68;100254.72;5095477;28;20456;-61
2022/07/30 05:57:49;;;;;;;24.73;15.25;;;;;;;18.45;62.71;100257.34;5094631;28;20505;-61
2022/07/30 06:00:34;;;;;;;29.27;16.58;;;;;;;18.47;62.96;100257.34;5095320;28;20097;-62
2022/07/30 06:03:18;;;;;;;;;;;;;;;18.48;62.83;100259.94;5094414;28;20075;-62
2022/07/30 06:06:06;;;;;;;25.20;15.73;;;;;;;18.48;62.98;100261.72;5094085;28;19961;-61
2022/07/30 06:08:53;;;;;;;24.48;16.17;;;;;;;18.48;62.98;100257.31;5094141;28;20043;-62
2022/07/30 06:11:37;;;;;;;23.17;14.73;;;;;;;18.50;63.06;100265.19;5094982;28;20403;-63
2022/07/30 06:14:21;;;;;;;23.25;15.35;;;;;;;18.49;63.34;100261.69;5095332;28;20402;-62
2022/07/30 06:17:05;;;;;;;21.83;14.88;;;;;;;18.50;63.06;100267.81;5095215;28;20055;-62
2022/07/30 06:19:55;;;;;;;19.60;14.80;;;;;;;18.51;62.97;100256.44;5094587;28;20047;-62
2022/07/30 06:22:43;;;;;;;27.67;14.88;;;;;;;18.50;63.02;100268.66;5093845;28;20047;-62
2022/07/30 06:25:27;;;;;;;17.90;14.07;;;;;;;18.53;63.07;100266.00;5093969;28;20543;-62
2022/07/30 06:28:11;;;;;;;22.25;14.00;;;;;;;18.52;63.12;100271.28;5095064;28;20510;-62
2022/07/30 06:30:58;;;;;;;32.35;14.80;;;;;;;18.51;63.10;100273.03;5095014;28;20525;-62
2022/07/30 06:33:44;;;;;;;22.90;14.18;;;;;;;18.52;63.07;100277.41;5093615;28;20051;-63
2022/07/30 06:36:34;;;;;;;22.30;13.80;;;;;;;18.51;63.10;100278.28;5094404;28;20074;-62
2022/07/30 06:39:21;;;;;;;24.88;15.00;;;;;;;18.51;62.98;100282.69;5093834;28;20516;-61
2022/07/30 06:42:11;;;;;;;19.67;13.65;;;;;;;18.53;63.13;100278.28;5105432;27;20050;-61
2022/07/30 06:45:01;;;;;;;21.80;13.60;;;;;;;18.54;63.24;100285.22;5119950;27;20394;-61
2022/07/30 06:47:47;;;;;;;18.48;13.18;;;;;;;18.56;63.22;100280.84;5120130;27;20046;-61
2022/07/30 06:50:32;;;;;;;21.58;14.52;;;;;;;18.56;63.34;100292.22;5135208;27;20050;-61
2022/07/30 06:53:16;;;;;;;20.25;14.45;;;;;;;18.55;63.59;100287.84;5119626;27;20682;-61
2022/07/30 06:56:00;;;;;;;24.52;15.52;;;;;;;18.56;63.48;100289.59;5135255;27;20131;-61
2022/07/30 06:58:44;;;;;;;24.05;14.45;;;;;;;18.58;63.32;100291.34;5135350;27;20179;-61
2022/07/30 07:01:28;;;;;;;19.50;14.35;;;;;;;18.59;63.39;100299.19;5135363;27;20058;-62
2022/07/30 07:04:12;;;;;;;26.23;16.42;;;;;;;18.60;63.38;100297.44;5119638;27;20066;-61
2022/07/30 07:06:59;;;;;;;25.05;15.00;;;;;;;18.59;63.55;100298.31;5135239;27;20528;-61
2022/07/30 07:09:43;;;;;;;22.45;15.75;;;;;;;18.61;63.54;100296.53;5135224;27;20054;-63
2022/07/30 07:12:30;;;;;;;26.48;16.23;;;;;;;18.60;63.59;100295.66;5119507;27;20050;-61
2022/07/30 07:15:19;;;;;;;23.67;16.90;;;;;;;18.62;63.38;100293.88;5135033;27;20103;-60
2022/07/30 07:18:11;;;;;;;23.73;15.60;;;;;;;18.63;63.68;100300.88;5119080;27;20049;-61
2022/07/30 07:20:55;;;;;;;24.92;13.95;;;;;;;18.65;63.52;100293.84;5119240;27;20046;-60
2022/07/30 07:23:41;;;;;;;22.63;15.95;;;;;;;18.66;63.65;100297.34;5119157;27;20041;-62
2022/07/30 07:26:25;;;;;;;23.10;16.83;;;;;;;18.63;63.81;100293.00;5134527;27;20065;-61
2022/07/30 07:29:09;;;;;;;28.95;17.75;;;;;;;18.65;63.87;100306.97;5119276;27;20073;-60
2022/07/30 07:31:56;;;;;;;22.05;15.63;;;;;;;18.65;64.02;100303.47;5134574;27;20054;-61
2022/07/30 07:34:43;;;;;;;30.63;18.45;;;;;;;18.65;63.86;100304.34;5134907;27;20037;-61
2022/07/30 07:37:30;;;;;;;27.40;19.25;;;;;;;18.65;63.90;100303.47;5119058;27;20045;-61
2022/07/30 07:40:20;;;;;;;26.65;17.65;;;;;;;18.66;63.99;100298.22;5119184;28;20043;-60
2022/07/30 07:43:04;;;;;;;21.42;16.25;;;;;;;18.66;63.88;100305.22;5118635;27;20135;-62
2022/07/30 07:45:51;;;;;;;29.00;16.85;;;;;;;18.67;63.86;100312.19;5119257;28;20042;-62
2022/07/30 07:48:38;;;;;;;24.60;16.73;;;;;;;18.65;63.61;100308.72;5134707;28;20050;-62
2022/07/30 07:51:25;;;;;;;23.08;16.90;;;;;;;18.65;63.88;100312.22;5118424;28;20046;-62
2022/07/30 07:54:12;;;;;;;23.35;16.95;;;;;;;18.64;64.10;100310.50;5119151;28;20398;-62
2022/07/30 07:56:59;;;;;;;23.73;17.02;;;;;;;18.66;64.21;100320.97;5134685;28;20088;-62
2022/07/30 07:59:43;;;;;;;22.27;14.45;;;;;;;18.66;63.95;100324.47;5118647;28;20120;-62
2022/07/30 08:02:27;;;;;;;23.13;15.40;;;;;;;18.66;63.82;100324.47;5134153;28;20127;-62
2022/07/30 08:05:11;;;;;;;20.88;14.98;;;;;;;18.65;63.90;100319.22;5119006;28;20057;-63
2022/07/30 08:07:55;;;;;;;29.58;15.20;;;;;;;18.65;63.84;100319.22;5118986;28;20050;-62
2022/07/30 08:10:42;;;;;;;22.48;14.82;;;;;;;18.67;63.87;100322.69;5134236;28;20401;-62
2022/07/30 08:13:29;;;;;;;22.15;16.20;;;;;;;18.67;63.77;100315.72;5119081;28;20111;-62
2022/07/30 08:16:13;;;;;;;18.83;12.77;;;;;;;18.67;63.77;100306.94;5118905;28;20053;-62
2022/07/30 08:18:57;;;;;;;18.48;14.02;;;;;;;18.65;63.75;100312.22;5134268;27;20050;-62
2022/07/30 08:21:44;;;;;;;19.83;12.75;;;;;;;18.66;63.50;100311.34;5118851;28;20142;-62
2022/07/30 08:24:28;;;;;;;16.30;12.43;;;;;;;18.68;63.66;100309.56;5133813;27;20100;-63
2022/07/30 08:27:12;;;;;;;20.70;12.02;;;;;;;18.68;63.54;100316.56;5118718;28;20570;-62
2022/07/30 08:29:58;;;;;;;16.33;12.45;;;;;;;18.69;63.38;100320.94;5136641;27;20194;-62
2022/07/30 08:32:42;;;;;;;16.13;11.60;;;;;;;18.69;63.29;100310.44;5138215;27;20077;-62
2022/07/30 08:35:28;;;;;;;21.08;12.55;;;;;;;18.69;63.48;100310.44;5138243;27;20038;-62
2022/07/30 08:38:13;;;;;;;19.77;13.05;;;;;;;18.68;63.47;100312.19;5122609;27;20085;-62
2022/07/30 08:40:58;;;;;;;20.33;12.77;;;;;;;18.69;63.43;100316.53;5137703;27;20096;-62
2022/07/30 08:43:46;;;;;;;19.30;11.68;;;;;;;18.70;63.55;100304.28;5137473;27;20053;-63
2022/07/30 08:46:34;;;;;;;20.85;12.52;;;;;;;18.71;63.38;100308.66;5122254;27;20065;-62
2022/07/30 08:49:19;;;;;;;17.23;12.13;;;;;;;18.73;63.56;100309.50;5122419;27;20049;-62
2022/07/30 08:52:04;;;;;;;18.98;11.73;;;;;;;18.76;63.44;100308.59;5122043;27;20050;-62
2022/07/30 08:54:48;;;;;;;15.43;11.55;;;;;;;18.78;63.31;100307.66;5137415;27;20050;-62
2022/07/30 08:57:36;;;;;;;18.38;11.50;;;;;;;18.81;63.32;100309.41;5122175;27;20050;-61
2022/07/30 09:00:23;;;;;;;17.77;11.30;;;;;;;18.81;63.17;100305.00;5122158;27;20509;-63
2022/07/30 09:03:12;;;;;;;15.20;10.85;;;;;;;18.84;63.45;100307.59;5137146;27;20084;-62
2022/07/30 09:05:58;;;;;;;14.15;10.68;;;;;;;18.85;63.13;100309.31;5122055;27;20057;-62
2022/07/30 09:08:45;;;;;;;13.57;10.55;;;;;;;18.85;63.09;100309.31;5122256;27;20104;-62
2022/07/30 09:11:29;;;;;;;15.20;10.40;;;;;;;18.87;63.05;100310.19;5137333;27;20112;-62
2022/07/30 09:14:16;;;;;;;19.20;10.88;;;;;;;18.91;62.96;100315.41;5137298;27;20053;-62
2022/07/30 09:17:03;;;;;;;13.85;10.13;;;;;;;18.92;62.98;100311.88;5121754;27;20074;-62
2022/07/30 09:20:02;;;;;;;14.80;8.95;;;;;;;18.91;62.80;100310.13;5121604;27;20570;-62
2022/07/30 09:22:52;;;;;;;11.65;8.75;;;;;;;18.94;62.93;100312.69;5121445;27;20057;-62
2022/07/30 09:25:45;;;;;;;13.32;8.18;;;;;;;18.97;62.73;100310.94;5121481;27;20042;-61
2022/07/30 09:28:33;;;;;;;10.57;7.75;;;;;;;18.99;62.67;100316.16;5121268;27;20444;-61
2022/07/30 09:31:19;;;;;;;13.43;7.43;;;;;;;19.00;62.38;100317.91;5121226;27;20042;-62
2022/07/30 09:34:27;;;;;;;11.20;7.82;;;;;;;19.00;62.50;100310.88;5121343;27;20131;-61
2022/07/30 09:37:11;;;;;;;9.77;6.38;;;;;;;19.05;62.45;100317.84;5121079;27;20126;-61
2022/07/30 09:40:09;;;;;;;14.85;6.93;;;;;;;19.06;62.45;100316.94;5136794;27;20046;-61
2022/07/30 09:43:08;;;;;;;10.95;6.47;;;;;;;19.07;62.13;100310.81;5136204;27;20099;-61
2022/07/30 09:45:57;;;;;;;9.40;6.30;;;;;;;19.09;62.16;100311.66;5121314;27;20057;-63
2022/07/30 09:48:42;;;;;;;8.88;5.68;;;;;;;19.10;62.08;100302.88;5136563;27;20042;-61
2022/07/30 09:51:37;;;;;;;9.52;5.85;;;;;;;19.10;61.78;100305.50;5136633;27;20092;-62
2022/07/30 09:54:22;;;;;;;8.50;5.60;;;;;;;19.12;61.71;100303.72;5136523;27;20095;-62
2022/07/30 09:57:07;;;;;;;7.88;4.78;;;;;;;19.14;61.89;100305.44;5136677;27;20038;-62
2022/07/30 09:59:52;;;;;;;8.93;5.22;;;;;;;19.15;61.92;100301.91;5136205;27;20122;-62
2022/07/30 10:02:35;;;;;;;5.82;4.70;;;;;;;19.19;61.60;100307.97;5136386;27;20041;-62
2022/07/30 10:05:21;;;;;;;7.40;4.60;;;;;;;19.17;61.31;100304.50;5121196;27;20081;-62
2022/07/30 10:08:06;;;;;;;7.50;4.13;;;;;;;19.17;61.50;100305.41;5120889;27;20107;-62
2022/07/30 10:10:53;;;;;;;7.82;4.63;;;;;;;19.20;61.16;100309.72;5136264;27;20042;-62
2022/07/30 10:13:38;;;;;;;5.78;3.90;;;;;;;19.22;61.16;100312.34;5135579;27;20131;-62
2022/07/30 10:16:26;;;;;;;5.53;3.80;;;;;;;19.22;61.13;100305.31;5120693;27;20436;-62
2022/07/30 10:19:11;;;;;;;6.95;3.92;;;;;;;19.25;61.21;100294.75;5120562;27;20138;-62
2022/07/30 10:21:56;;;;;;;5.60;3.38;;;;;;;19.28;61.04;100299.09;5120734;27;20546;-62
2022/07/30 10:24:44;;;;;;;6.38;4.03;;;;;;;19.30;60.86;100298.19;5135696;27;20103;-62
2022/07/30 10:27:30;;;;;;;5.88;3.35;;;;;;;19.32;61.04;100292.91;5120457;27;20034;-62
2022/07/30 10:30:15;;;;;;;9.23;3.45;;;;;;;19.34;60.83;100299.00;5120220;27;20107;-62
2022/07/30 10:33:00;;;;;;;5.60;3.25;;;;;;;19.36;60.81;100296.34;5120361;27;20100;-62
2022/07/30 10:35:47;;;;;;;6.88;3.05;;;;;;;19.37;60.55;100296.34;5120230;27;20050;-62
2022/07/30 10:38:36;;;;;;;7.30;3.38;;;;;;;19.39;60.59;100291.03;5119732;27;20050;-62
2022/07/30 10:41:52;;;;;;;9.93;3.67;;;;;;;19.40;60.71;100292.78;5120037;27;20046;-62
2022/07/30 10:44:39;;;;;;;5.38;3.13;;;;;;;19.40;60.43;100291.00;5135614;27;20152;-61
2022/07/30 10:47:25;;;;;;;5.22;2.78;;;;;;;19.43;60.45;100292.72;5135433;27;20160;-61
2022/07/30 10:50:14;;;;;;;5.97;2.58;;;;;;;19.45;60.45;100289.19;5135200;27;20062;-61
2022/07/30 10:53:02;;;;;;;12.13;4.00;;;;;;;19.47;60.17;100294.41;5118943;27;20058;-61
2022/07/30 10:56:24;;;;;;;8.30;2.85;;;;;;;19.50;60.20;100282.97;5119969;27;20050;-61
2022/07/30 10:59:12;;;;;;;5.60;2.60;;;;;;;19.51;60.18;100288.19;5119780;27;20047;-61
2022/07/30 11:01:56;;;;;;;10.95;2.95;;;;;;;19.54;59.86;100284.69;5119589;27;20110;-61
2022/07/30 11:04:43;;;;;;;5.70;2.80;;;;;;;19.55;60.05;100283.75;5119713;27;20501;-61
2022/07/30 11:07:31;;;;;;;5.90;2.90;;;;;;;19.58;59.86;100292.47;5119739;27;20050;-61
2022/07/30 11:10:35;;;;;;;6.13;2.92;;;;;;;19.59;60.01;100290.69;5119536;27;20042;-61
2022/07/30 11:13:51;;;;;;;7.05;2.70;;;;;;;19.59;59.90;100281.06;5135062;27;20059;-61
2022/07/30 11:16:37;;;;;;;5.63;2.53;;;;;;;19.61;59.69;100291.53;5119536;27;20112;-61
2022/07/30 11:19:23;;;;;;;8.25;3.50;;;;;;;19.63;59.65;100281.88;5134837;27;20596;-60
2022/07/30 11:22:24;;;;;;;7.43;2.80;;;;;;;19.67;59.56;100280.94;5134919;27;20042;-61
2022/07/30 11:25:27;;;;;;;6.82;2.83;;;;;;;19.68;59.67;100279.16;5119484;27;20085;-62
2022/07/30 11:28:39;;;;;;;6.82;3.00;;;;;;;19.70;59.69;100290.50;5134893;27;20051;-62
2022/07/30 11:31:38;;;;;;;9.95;2.80;;;;;;;19.71;59.67;100284.38;5119214;27;20443;-62
2022/07/30 11:34:24;;;;;;;5.38;2.70;;;;;;;19.73;59.56;100278.16;5134900;27;20054;-62
2022/07/30 11:37:14;;;;;;;4.35;2.30;;;;;;;19.73;59.23;100274.69;5119713;27;20062;-62
2022/07/30 11:39:58;;;;;;;6.35;3.40;;;;;;;19.74;59.24;100272.03;5134536;27;20076;-61
2022/07/30 11:42:44;;;;;;;7.75;2.92;;;;;;;19.77;59.47;100271.97;5134631;27;20050;-61
2022/07/30 11:45:29;;;;;;;5.47;2.35;;;;;;;19.78;59.09;100278.06;5134308;27;20041;-61
2022/07/30 11:48:15;;;;;;;6.25;2.60;;;;;;;19.80;59.13;100280.69;5134341;27;20092;-63
2022/07/30 11:51:00;;;;;;;5.47;2.88;;;;;;;19.81;58.72;100278.03;5119238;28;20050;-63
2022/07/30 11:53:44;;;;;;;8.23;2.67;;;;;;;19.83;59.11;100278.88;5134705;28;20062;-63
2022/07/30 11:56:29;;;;;;;5.05;2.75;;;;;;;19.83;58.93;100278.03;5119170;28;20130;-62
2022/07/30 11:59:19;;;;;;;3.45;2.80;;;;;;;19.85;58.89;100278.88;5134428;27;20050;-63
2022/07/30 12:02:03;;;;;;;5.10;3.15;;;;;;;19.86;58.85;100291.97;5119017;28;20163;-62
2022/07/30 12:04:47;;;;;;;5.38;3.05;;;;;;;19.87;59.00;100277.97;5136701;27;20061;-62
2022/07/30 12:07:31;;;;;;;5.10;2.58;;;;;;;19.88;58.85;100276.19;5123175;27;20050;-62
2022/07/30 12:10:17;;;;;;;3.97;2.35;;;;;;;19.89;58.90;100283.19;5138656;27;20054;-62
2022/07/30 12:13:12;;;;;;;4.75;2.55;;;;;;;19.91;58.77;100276.13;5123249;27;20131;-62
2022/07/30 12:15:59;;;;;;;4.70;2.65;;;;;;;19.91;58.70;100278.75;5122919;27;20043;-62
2022/07/30 12:18:47;;;;;;;9.45;3.90;;;;;;;19.91;58.85;100281.38;5138441;27;20042;-62
2022/07/30 12:21:32;;;;;;;9.07;3.53;;;;;;;19.93;58.58;100276.97;5138302;27;20410;-62
2022/07/30 12:24:23;;;;;;;7.47;2.80;;;;;;;19.91;58.79;100276.13;5122911;27;20050;-62
2022/07/30 12:27:07;;;;;;;8.40;4.65;;;;;;;19.92;58.69;100280.50;5122468;27;20087;-62
2022/07/30 12:29:51;;;;;;;6.63;3.60;;;;;;;19.93;58.66;100274.34;5122345;27;20410;-62
2022/07/30 12:32:36;;;;;;;7.35;3.80;;;;;;;19.92;58.56;100273.50;5138219;27;20459;-62
2022/07/30 12:35:22;;;;;;;9.57;4.18;;;;;;;19.92;58.41;100277.88;5122622;27;20049;-62
2022/07/30 12:38:07;;;;;;;5.97;2.92;;;;;;;19.94;58.56;100278.72;5122647;27;20076;-63
2022/07/30 12:41:01;;;;;;;4.85;3.28;;;;;;;19.95;58.45;100269.91;5122489;27;20133;-62
2022/07/30 12:43:49;;;;;;;6.18;3.38;;;;;;;19.95;58.53;100267.28;5121965;27;20054;-62
2022/07/30 12:46:40;;;;;;;5.57;2.75;;;;;;;19.98;58.49;100264.59;5122292;27;20091;-62
2022/07/30 12:49:29;;;;;;;7.00;3.13;;;;;;;20.00;58.11;100270.72;5122338;27;20449;-62
2022/07/30 12:52:28;;;;;;;4.97;2.92;;;;;;;20.00;58.25;100264.56;5122284;27;20410;-62